Time;durP1;ratioP1;P1;durP2;ratioP2;P2;SDS_P1;SDS_P2;PMS_P1;PMS_P2;Temp;Humidity;BMP_temperature;BMP_pressure;BME280_temperature;BME280_humidity;BME280_pressure;Samples;Min_cycle;Max_cycle;Signal;HPM_P1;HPM_P2
2023/07/03 00:00:33;;;;;;;35.15;15.27;;;14.00;92.50;;;;;;6227593;23;20028;-91
2023/07/03 00:03:20;;;;;;;32.33;15.07;;;14.10;96.10;;;;;;6248606;23;20024;-91
2023/07/03 00:06:07;;;;;;;28.30;13.68;;;14.10;92.40;;;;;;6227673;23;20024;-91
2023/07/03 00:08:56;;;;;;;29.13;14.00;;;14.20;94.20;;;;;;6228270;23;20374;-92
2023/07/03 00:11:43;;;;;;;31.83;14.20;;;14.20;94.70;;;;;;6250192;23;20111;-90
2023/07/03 00:14:31;;;;;;;32.90;13.90;;;14.20;91.70;;;;;;6208408;23;20403;-90
2023/07/03 00:17:18;;;;;;;32.33;13.68;;;14.30;91.90;;;;;;6250424;23;20020;-91
2023/07/03 00:20:11;;;;;;;34.35;13.88;;;14.30;85.90;;;;;;6251485;22;20089;-92
2023/07/03 00:22:59;;;;;;;32.15;14.15;;;14.30;80.60;;;;;;6231451;23;20086;-91
2023/07/03 00:25:49;;;;;;;32.05;13.65;;;14.30;84.00;;;;;;6261811;23;20042;-92
2023/07/03 00:28:37;;;;;;;37.22;15.00;;;14.20;86.80;;;;;;6254461;23;20043;-90
2023/07/03 00:31:24;;;;;;;37.53;14.27;;;14.30;90.60;;;;;;6251629;22;20028;-91
2023/07/03 00:34:12;;;;;;;34.40;14.88;;;14.30;91.00;;;;;;6251152;22;20038;-91
2023/07/03 00:37:04;;;;;;;35.63;14.65;;;14.20;93.30;;;;;;6249739;23;20034;-90
2023/07/03 00:39:54;;;;;;;38.33;15.63;;;14.20;94.00;;;;;;6245603;23;20086;-91
2023/07/03 00:42:41;;;;;;;33.45;14.23;;;14.20;95.90;;;;;;6221340;22;20025;-91
2023/07/03 00:45:29;;;;;;;34.42;14.00;;;14.20;98.00;;;;;;6217157;23;20419;-91
2023/07/03 00:48:18;;;;;;;33.40;14.27;;;14.30;98.10;;;;;;6217627;23;20043;-90
2023/07/03 00:51:10;;;;;;;35.97;14.40;;;14.30;94.30;;;;;;6218379;23;20481;-90
2023/07/03 00:53:57;;;;;;;34.70;14.68;;;14.40;93.80;;;;;;6224414;23;20032;-89
2023/07/03 00:56:45;;;;;;;32.00;14.27;;;14.50;91.90;;;;;;6232038;23;20359;-90
2023/07/03 00:59:35;;;;;;;28.02;13.38;;;14.50;90.10;;;;;;6242861;23;20068;-86
2023/07/03 01:02:46;;;;;;;33.58;14.57;;;14.50;86.30;;;;;;6235010;23;20538;-87
2023/07/03 01:05:45;;;;;;;30.98;13.77;;;14.60;81.80;;;;;;6235973;23;20024;-90
2023/07/03 01:08:36;;;;;;;32.85;14.48;;;14.70;72.30;;;;;;6231325;23;20059;-89
2023/07/03 01:11:25;;;;;;;31.10;13.85;;;14.80;69.80;;;;;;6219292;23;20043;-87
2023/07/03 01:14:17;;;;;;;35.70;15.10;;;14.90;60.20;;;;;;6220252;23;20064;-92
2023/07/03 01:17:11;;;;;;;35.10;15.23;;;15.00;55.00;;;;;;6197793;23;20031;-91
2023/07/03 01:20:03;;;;;;;27.02;13.65;;;15.10;52.30;;;;;;6219308;23;20391;-91
2023/07/03 01:22:59;;;;;;;31.27;14.80;;;15.20;48.30;;;;;;6217065;23;20021;-90
2023/07/03 01:25:48;;;;;;;32.22;14.68;;;15.20;44.30;;;;;;6217455;23;20020;-90
2023/07/03 01:28:37;;;;;;;34.10;14.48;;;15.30;40.00;;;;;;6195689;23;20024;-90
2023/07/03 01:31:27;;;;;;;34.85;14.38;;;15.40;33.40;;;;;;6216892;23;20025;-92
2023/07/03 01:34:14;;;;;;;27.30;14.27;;;15.40;28.50;;;;;;6219048;23;20051;-91
2023/07/03 01:37:04;;;;;;;31.88;14.90;;;15.50;24.50;;;;;;6219730;23;20028;-92
2023/07/03 01:39:52;;;;;;;35.35;14.60;;;15.50;21.20;;;;;;6195735;23;20324;-91
2023/07/03 01:42:46;;;;;;;34.08;15.25;;;15.50;21.30;;;;;;6207335;23;20044;-88
2023/07/03 01:45:41;;;;;;;27.90;13.30;;;15.50;18.70;;;;;;6208573;23;20027;-90
2023/07/03 01:48:32;;;;;;;30.00;13.68;;;15.60;17.70;;;;;;6213862;23;20024;-90
2023/07/03 01:51:37;;;;;;;29.08;12.73;;;15.60;14.80;;;;;;6209969;23;20083;-90
2023/07/03 01:54:37;;;;;;;33.72;14.02;;;15.60;14.00;;;;;;6233011;23;20028;-90
2023/07/03 01:57:40;;;;;;;32.95;13.30;;;15.60;15.60;;;;;;6219814;23;20032;-89
2023/07/03 02:00:35;;;;;;;28.90;13.32;;;15.60;20.30;;;;;;6219665;23;20029;-90
2023/07/03 02:03:25;;;;;;;;;;;15.60;21.90;;;;;;6219669;23;20024;-89
2023/07/03 02:06:33;;;;;;;32.40;14.60;;;15.60;18.40;;;;;;6196963;23;19986;-92
2023/07/03 02:09:24;;;;;;;28.85;13.85;;;15.70;15.80;;;;;;6217858;23;20100;-90
2023/07/03 02:12:29;;;;;;;30.65;13.80;;;15.70;13.50;;;;;;6221117;23;20035;-91
2023/07/03 02:15:17;;;;;;;30.83;14.07;;;15.70;11.10;;;;;;6221121;23;20021;-90
2023/07/03 02:18:07;;;;;;;29.17;14.07;;;15.70;7.80;;;;;;6199911;23;20028;-88
2023/07/03 02:20:55;;;;;;;32.58;14.50;;;15.80;4.90;;;;;;6202862;23;20025;-88
2023/07/03 02:23:44;;;;;;;31.50;15.07;;;15.70;3.90;;;;;;6200265;23;20290;-88
2023/07/03 02:26:32;;;;;;;35.58;13.85;;;15.70;6.50;;;;;;6198507;23;20024;-89
2023/07/03 02:29:22;;;;;;;34.78;15.70;;;15.60;6.80;;;;;;6219507;23;20036;-90
2023/07/03 02:32:11;;;;;;;27.15;14.55;;;15.60;5.70;;;;;;6196904;23;20020;-87
2023/07/03 02:34:59;;;;;;;34.38;15.05;;;15.60;10.50;;;;;;6218320;23;20024;-90
2023/07/03 02:37:46;;;;;;;33.17;13.65;;;15.50;13.70;;;;;;6198233;23;20131;-92
2023/07/03 02:40:37;;;;;;;31.63;14.45;;;15.40;16.90;;;;;;6210718;23;20391;-89
2023/07/03 02:43:25;;;;;;;29.23;14.35;;;15.40;18.80;;;;;;6247968;23;20020;-89
2023/07/03 02:46:12;;;;;;;33.28;15.05;;;15.40;23.30;;;;;;6230576;23;20028;-91
2023/07/03 02:49:03;;;;;;;29.33;14.65;;;15.40;25.10;;;;;;6229420;23;20102;-90
2023/07/03 02:51:50;;;;;;;39.13;14.73;;;15.40;26.70;;;;;;6250374;23;20119;-88
2023/07/03 02:54:38;;;;;;;31.45;13.55;;;15.40;26.90;;;;;;6228605;23;20031;-89
2023/07/03 02:57:25;;;;;;;29.58;14.07;;;15.50;27.60;;;;;;6230133;23;20031;-90
2023/07/03 03:00:13;;;;;;;28.70;14.30;;;15.40;29.50;;;;;;6229362;23;20020;-89
2023/07/03 03:03:03;;;;;;;29.58;15.05;;;15.40;27.80;;;;;;6230590;23;20024;-90
2023/07/03 03:05:50;;;;;;;32.13;13.93;;;15.50;28.90;;;;;;6264107;23;20020;-89
2023/07/03 03:08:38;;;;;;;29.40;14.57;;;15.40;28.40;;;;;;6264448;22;20028;-90
2023/07/03 03:11:27;;;;;;;27.48;13.50;;;15.40;31.90;;;;;;6243096;23;20035;-89
2023/07/03 03:14:14;;;;;;;33.80;15.05;;;15.40;35.20;;;;;;6261648;23;20330;-88
2023/07/03 03:17:02;;;;;;;31.13;14.20;;;15.40;34.80;;;;;;6272489;22;20013;-85
2023/07/03 03:19:50;;;;;;;29.88;13.80;;;15.30;36.40;;;;;;6251031;22;20012;-87
2023/07/03 03:22:37;;;;;;;31.95;14.55;;;15.30;43.80;;;;;;6272077;22;20103;-90
2023/07/03 03:25:25;;;;;;;27.48;14.80;;;15.30;46.10;;;;;;6264932;23;20024;-89
2023/07/03 03:28:12;;;;;;;28.23;13.98;;;15.30;48.90;;;;;;6242296;23;20051;-91
2023/07/03 03:31:00;;;;;;;28.52;14.35;;;15.20;49.20;;;;;;6266223;22;20295;-90
2023/07/03 03:33:47;;;;;;;26.85;14.05;;;15.20;54.10;;;;;;6263107;23;20028;-90
2023/07/03 03:36:38;;;;;;;30.60;13.20;;;15.20;56.20;;;;;;6235262;23;20043;-89
2023/07/03 03:39:26;;;;;;;29.35;14.23;;;15.20;57.30;;;;;;6256219;23;20382;-89
2023/07/03 03:42:14;;;;;;;30.48;13.68;;;15.20;60.50;;;;;;6251295;23;20035;-91
2023/07/03 03:45:03;;;;;;;31.65;13.85;;;15.20;65.70;;;;;;6251829;23;20312;-91
2023/07/03 03:47:51;;;;;;;27.58;14.23;;;15.20;68.00;;;;;;6252051;23;20023;-88
2023/07/03 03:50:38;;;;;;;25.48;13.13;;;15.20;69.40;;;;;;6229209;23;20030;-91
2023/07/03 03:53:26;;;;;;;35.65;14.80;;;15.20;65.30;;;;;;6230256;23;20020;-89
2023/07/03 03:56:16;;;;;;;29.27;13.93;;;15.30;66.80;;;;;;6229860;23;20020;-90
2023/07/03 03:59:05;;;;;;;26.60;13.40;;;15.30;67.80;;;;;;6209765;23;20024;-91
2023/07/03 04:02:15;;;;;;;27.52;14.25;;;15.30;65.30;;;;;;6228281;23;20277;-89
2023/07/03 04:05:19;;;;;;;25.95;12.80;;;15.30;64.10;;;;;;6231742;23;20020;-91
2023/07/03 04:08:12;;;;;;;28.05;12.82;;;15.30;63.30;;;;;;6250883;23;20028;-90
2023/07/03 04:11:02;;;;;;;29.25;13.32;;;15.30;65.80;;;;;;6230150;23;20038;-89
2023/07/03 04:13:51;;;;;;;26.08;13.20;;;15.30;69.20;;;;;;6250896;23;20028;-90
2023/07/03 04:16:39;;;;;;;25.67;12.65;;;15.30;73.60;;;;;;6228998;23;20414;-89
2023/07/03 04:19:28;;;;;;;33.67;13.52;;;15.30;76.40;;;;;;6250496;23;20024;-90
2023/07/03 04:22:16;;;;;;;26.38;12.50;;;15.30;81.70;;;;;;6251756;23;20416;-88
2023/07/03 04:25:08;;;;;;;29.05;14.05;;;15.40;79.70;;;;;;6252283;22;20039;-90
2023/07/03 04:27:55;;;;;;;32.80;13.35;;;15.40;77.70;;;;;;6251434;23;20028;-90
2023/07/03 04:30:43;;;;;;;30.42;12.38;;;15.40;78.20;;;;;;6232064;22;20028;-89
2023/07/03 04:33:32;;;;;;;30.20;12.73;;;15.40;73.50;;;;;;6250427;23;20051;-89
2023/07/03 04:36:20;;;;;;;24.75;12.75;;;15.40;78.90;;;;;;6253498;22;20307;-90
2023/07/03 04:39:10;;;;;;;27.25;12.57;;;15.40;79.40;;;;;;6228319;23;20020;-89
2023/07/03 04:42:00;;;;;;;25.30;12.20;;;15.50;88.00;;;;;;6252362;22;20422;-88
2023/07/03 04:44:51;;;;;;;28.08;12.55;;;15.50;86.30;;;;;;6252389;22;20024;-88
2023/07/03 04:47:38;;;;;;;28.40;13.25;;;15.50;90.10;;;;;;6248994;23;20047;-90
2023/07/03 04:50:25;;;;;;;26.80;12.45;;;15.50;86.10;;;;;;6251795;23;20028;-92
2023/07/03 04:53:13;;;;;;;30.80;13.10;;;15.50;90.30;;;;;;6252035;22;20028;-87
2023/07/03 04:56:00;;;;;;;29.13;12.27;;;15.60;92.10;;;;;;6230495;23;20036;-89
2023/07/03 04:58:48;;;;;;;21.92;11.30;;;15.60;90.30;;;;;;6250066;23;20016;-87
2023/07/03 05:01:42;;;;;;;27.63;11.20;;;15.60;88.90;;;;;;6230377;23;20107;-89
2023/07/03 05:04:30;;;;;;;21.77;10.85;;;15.70;87.30;;;;;;6251584;23;20107;-88
2023/07/03 05:07:19;;;;;;;32.38;12.50;;;15.70;83.20;;;;;;6251512;22;20082;-91
2023/07/03 05:10:09;;;;;;;26.63;11.77;;;15.80;78.70;;;;;;6250944;23;20427;-90
2023/07/03 05:12:59;;;;;;;27.95;11.77;;;15.80;69.00;;;;;;6247390;23;20111;-90
2023/07/03 05:15:47;;;;;;;23.38;11.13;;;15.90;65.40;;;;;;6251226;22;20028;-89
2023/07/03 05:18:34;;;;;;;23.10;11.35;;;16.00;64.50;;;;;;6250989;23;20115;-91
2023/07/03 05:21:21;;;;;;;24.10;11.00;;;16.10;54.60;;;;;;6250310;23;20020;-92
2023/07/03 05:24:09;;;;;;;29.10;11.20;;;16.10;50.00;;;;;;6250318;22;20030;-90
2023/07/03 05:26:59;;;;;;;21.38;10.23;;;16.30;46.00;;;;;;6251330;23;20024;-89
2023/07/03 05:29:49;;;;;;;22.75;10.65;;;16.30;41.90;;;;;;6230592;23;20087;-91
2023/07/03 05:32:40;;;;;;;19.17;10.70;;;16.40;39.30;;;;;;6252947;23;20090;-91
2023/07/03 05:35:28;;;;;;;21.83;10.38;;;16.50;29.60;;;;;;6254055;23;20388;-91
2023/07/03 05:38:16;;;;;;;24.02;11.45;;;16.60;28.50;;;;;;6228944;23;20024;-90
2023/07/03 05:41:03;;;;;;;30.50;10.68;;;16.60;26.20;;;;;;6230860;23;20024;-93
2023/07/03 05:43:51;;;;;;;23.30;10.40;;;16.70;20.60;;;;;;6198543;23;20028;-90
2023/07/03 05:46:41;;;;;;;21.88;9.88;;;16.80;15.40;;;;;;6218474;23;20025;-90
2023/07/03 05:49:29;;;;;;;23.15;10.00;;;16.80;14.10;;;;;;6177164;23;20042;-89
2023/07/03 05:52:16;;;;;;;22.63;9.32;;;16.80;10.00;;;;;;6216688;23;20028;-90
2023/07/03 05:55:04;;;;;;;18.20;9.73;;;16.90;12.30;;;;;;6219061;23;20099;-87
2023/07/03 05:57:52;;;;;;;21.45;9.90;;;16.90;10.20;;;;;;6219983;23;20071;-90
2023/07/03 06:00:40;;;;;;;25.33;9.43;;;16.90;8.30;;;;;;6219300;23;20030;-86
2023/07/03 06:03:32;;;;;;;20.67;9.68;;;16.90;9.80;;;;;;6221393;23;20029;-88
2023/07/03 06:06:20;;;;;;;22.02;10.00;;;16.80;8.40;;;;;;6228326;23;20443;-89
2023/07/03 06:09:08;;;;;;;24.80;10.88;;;16.80;11.70;;;;;;6228407;23;20028;-90
2023/07/03 06:11:55;;;;;;;18.05;9.43;;;16.80;15.20;;;;;;6222493;23;20032;-91
2023/07/03 06:14:43;;;;;;;22.58;9.38;;;16.80;15.20;;;;;;6217843;23;20059;-91
2023/07/03 06:17:31;;;;;;;22.40;10.68;;;16.70;15.90;;;;;;6215197;23;20028;-88
2023/07/03 06:20:18;;;;;;;21.70;10.32;;;16.90;19.80;;;;;;6219453;23;20479;-88
2023/07/03 06:23:08;;;;;;;20.50;10.15;;;17.10;15.00;;;;;;6216758;23;20032;-89
2023/07/03 06:25:55;;;;;;;20.00;9.68;;;17.00;13.00;;;;;;6195753;23;20059;-89
2023/07/03 06:28:43;;;;;;;17.88;9.10;;;17.00;12.20;;;;;;6196365;23;20029;-87
2023/07/03 06:31:32;;;;;;;22.30;10.52;;;17.00;15.50;;;;;;6196788;23;20031;-88
2023/07/03 06:34:19;;;;;;;22.35;10.10;;;17.10;18.70;;;;;;6218262;23;20024;-91
2023/07/03 06:37:08;;;;;;;22.55;9.82;;;17.20;15.80;;;;;;6198574;23;20024;-87
2023/07/03 06:39:56;;;;;;;20.23;9.30;;;17.30;16.90;;;;;;6194350;23;20159;-87
2023/07/03 06:42:43;;;;;;;22.23;10.25;;;17.30;14.10;;;;;;6196219;23;20068;-87
2023/07/03 06:45:38;;;;;;;23.33;10.52;;;17.40;15.30;;;;;;6218519;23;20024;-89
2023/07/03 06:48:27;;;;;;;20.58;9.88;;;17.50;14.10;;;;;;6217185;23;20075;-87
2023/07/03 06:51:15;;;;;;;22.45;9.75;;;17.50;7.90;;;;;;6217118;23;20193;-90
2023/07/03 06:54:03;;;;;;;21.60;10.27;;;17.60;11.20;;;;;;6216701;23;20055;-87
2023/07/03 06:56:50;;;;;;;20.48;9.85;;;17.70;13.10;;;;;;6197562;23;20039;-89
2023/07/03 06:59:45;;;;;;;22.95;9.30;;;17.60;9.30;;;;;;6196413;23;20038;-89
2023/07/03 07:02:35;;;;;;;20.48;9.25;;;17.60;8.90;;;;;;6196199;23;20035;-92
2023/07/03 07:05:31;;;;;;;26.70;10.68;;;17.60;8.50;;;;;;6215373;23;20450;-89
2023/07/03 07:08:18;;;;;;;21.13;10.20;;;17.70;5.80;;;;;;6195517;23;20087;-89
2023/07/03 07:11:16;;;;;;;21.42;9.50;;;17.70;2.60;;;;;;6196535;23;20024;-90
2023/07/03 07:14:06;;;;;;;19.27;9.30;;;17.90;1.00;;;;;;6216442;23;20106;-87
2023/07/03 07:16:53;;;;;;;22.10;9.90;;;18.10;1.00;;;;;;6219055;23;20024;-89
2023/07/03 07:19:45;;;;;;;20.13;9.00;;;18.20;1.00;;;;;;6196450;23;20029;-90
2023/07/03 07:22:37;;;;;;;28.98;10.25;;;18.50;1.00;;;;;;6218064;23;20079;-90
2023/07/03 07:25:24;;;;;;;24.95;8.73;;;18.80;1.00;;;;;;6220260;23;20048;-88
2023/07/03 07:28:12;;;;;;;19.63;9.20;;;18.70;1.00;;;;;;6208552;23;20033;-87
2023/07/03 07:31:00;;;;;;;22.10;9.45;;;18.50;1.00;;;;;;6230864;23;20035;-90
2023/07/03 07:33:53;;;;;;;23.85;10.20;;;18.70;1.00;;;;;;6207556;23;20334;-90
2023/07/03 07:36:40;;;;;;;18.77;8.68;;;18.80;1.00;;;;;;6223241;23;20056;-88
2023/07/03 07:39:28;;;;;;;28.40;10.02;;;18.80;1.00;;;;;;6195490;23;20021;-89
2023/07/03 07:42:18;;;;;;;27.15;9.85;;;19.10;1.00;;;;;;6219672;23;20036;-91
2023/07/03 07:45:09;;;;;;;22.60;9.00;;;19.30;1.00;;;;;;6197287;23;20024;-89
2023/07/03 07:47:56;;;;;;;22.35;8.88;;;19.20;1.00;;;;;;6217936;23;20101;-90
2023/07/03 07:50:44;;;;;;;20.88;8.75;;;19.40;1.00;;;;;;6217541;23;20028;-91
2023/07/03 07:53:32;;;;;;;21.45;8.18;;;19.50;1.00;;;;;;6218066;23;20086;-90
2023/07/03 07:56:22;;;;;;;22.30;8.10;;;19.50;1.00;;;;;;6197902;23;20021;-91
2023/07/03 07:59:13;;;;;;;21.83;8.18;;;19.50;1.00;;;;;;6222018;23;20024;-89
2023/07/03 08:02:01;;;;;;;16.80;8.00;;;19.80;1.00;;;;;;6219875;23;20068;-90
2023/07/03 08:04:49;;;;;;;16.67;8.38;;;19.90;1.00;;;;;;6219060;23;20024;-89
2023/07/03 08:07:37;;;;;;;20.83;8.27;;;19.80;1.00;;;;;;6199429;23;20052;-88
2023/07/03 08:10:24;;;;;;;24.00;7.95;;;19.50;1.00;;;;;;6219629;23;20028;-89
2023/07/03 08:13:11;;;;;;;28.08;8.70;;;19.30;1.00;;;;;;6220205;23;20035;-90
2023/07/03 08:15:59;;;;;;;26.27;8.23;;;19.50;1.00;;;;;;6197063;23;20032;-89
2023/07/03 08:18:49;;;;;;;19.75;8.38;;;19.60;1.00;;;;;;6219401;23;20082;-89
2023/07/03 08:21:36;;;;;;;19.38;7.63;;;19.80;1.00;;;;;;6223692;23;20102;-87
2023/07/03 08:24:24;;;;;;;21.92;7.78;;;19.90;1.00;;;;;;6227783;23;20020;-90
2023/07/03 08:27:11;;;;;;;21.35;8.30;;;19.80;1.00;;;;;;6200862;23;20280;-84
2023/07/03 08:30:00;;;;;;;20.13;7.70;;;19.40;1.00;;;;;;6222958;23;20515;-90
2023/07/03 08:32:47;;;;;;;18.05;7.55;;;19.40;1.00;;;;;;6225012;23;20786;-87
2023/07/03 08:35:37;;;;;;;18.48;7.07;;;19.60;1.00;;;;;;6222895;23;20021;-87
2023/07/03 08:38:28;;;;;;;18.05;7.00;;;19.80;1.00;;;;;;6203205;23;20360;-87
2023/07/03 08:41:16;;;;;;;21.17;7.40;;;20.70;1.00;;;;;;6192017;23;20020;-89
2023/07/03 08:44:09;;;;;;;22.45;7.53;;;21.30;1.00;;;;;;6198900;23;20056;-89
2023/07/03 08:46:58;;;;;;;17.15;7.70;;;21.40;1.00;;;;;;6198191;23;20094;-84
2023/07/03 08:50:03;;;;;;;29.98;8.60;;;20.80;1.00;;;;;;6218481;23;20028;-89
2023/07/03 08:52:57;;;;;;;17.73;7.15;;;20.50;1.00;;;;;;6219396;23;20054;-86
2023/07/03 08:56:08;;;;;;;19.25;7.93;;;21.30;1.00;;;;;;6219712;23;20098;-90
2023/07/03 08:58:56;;;;;;;19.95;8.18;;;21.00;1.00;;;;;;6217555;23;20056;-87
2023/07/03 09:01:53;;;;;;;17.73;7.10;;;20.80;1.00;;;;;;6219113;23;20035;-91
2023/07/03 09:05:27;;;;;;;19.20;6.93;;;21.00;1.00;;;;;;6196564;23;20080;-92
2023/07/03 09:08:28;;;;;;;17.33;7.00;;;21.00;1.00;;;;;;6159754;23;20025;-89
2023/07/03 09:11:17;;;;;;;22.70;7.50;;;21.00;1.00;;;;;;6217921;23;20025;-89
2023/07/03 09:14:09;;;;;;;17.10;7.63;;;20.90;1.00;;;;;;6218336;23;20110;-89
2023/07/03 09:16:57;;;;;;;22.15;7.40;;;20.90;1.00;;;;;;6195593;23;20024;-89
2023/07/03 09:19:51;;;;;;;16.38;7.18;;;20.80;1.00;;;;;;6196290;23;20028;-86
2023/07/03 09:22:59;;;;;;;17.08;6.50;;;20.80;1.00;;;;;;6216985;23;20359;-87
2023/07/03 09:25:52;;;;;;;13.98;6.15;;;21.10;1.00;;;;;;6198137;23;20039;-91
2023/07/03 09:28:42;;;;;;;17.80;5.82;;;21.40;1.00;;;;;;6198613;23;20033;-91
2023/07/03 09:31:31;;;;;;;17.15;6.65;;;21.10;1.00;;;;;;6198502;23;20029;-89
2023/07/03 09:34:22;;;;;;;17.13;6.07;;;21.80;1.00;;;;;;6219629;23;20068;-89
2023/07/03 09:37:10;;;;;;;18.55;6.60;;;23.00;1.00;;;;;;6218685;23;20028;-87
2023/07/03 09:39:58;;;;;;;18.67;6.53;;;23.10;1.00;;;;;;6217685;23;20078;-90
2023/07/03 09:42:46;;;;;;;17.33;5.90;;;22.70;1.00;;;;;;6218696;23;20024;-91
2023/07/03 09:45:38;;;;;;;17.40;5.68;;;22.70;1.00;;;;;;6217618;23;20025;-88
2023/07/03 09:48:30;;;;;;;13.07;4.95;;;22.70;1.00;;;;;;6215234;23;20024;-88
2023/07/03 09:51:27;;;;;;;16.60;6.47;;;22.60;1.00;;;;;;6216761;23;20039;-89
2023/07/03 09:54:21;;;;;;;13.98;5.90;;;23.90;1.00;;;;;;6214448;23;20031;-91
2023/07/03 09:57:26;;;;;;;12.35;5.15;;;24.50;1.00;;;;;;6215442;23;20075;-84
2023/07/03 10:00:18;;;;;;;18.98;6.00;;;25.20;1.00;;;;;;6216647;23;20028;-86
2023/07/03 10:03:06;;;;;;;16.13;5.82;;;23.90;1.00;;;;;;6215316;23;20100;-90
2023/07/03 10:06:12;;;;;;;14.15;5.80;;;23.20;1.00;;;;;;6215936;23;20028;-86
2023/07/03 10:09:15;;;;;;;11.88;5.50;;;23.00;1.00;;;;;;6217427;23;20036;-90
2023/07/03 10:12:32;;;;;;;14.02;5.72;;;24.00;1.00;;;;;;6195612;23;20028;-88
2023/07/03 10:15:25;;;;;;;14.18;5.20;;;23.60;1.00;;;;;;6194867;23;20024;-89
2023/07/03 10:18:23;;;;;;;12.73;5.03;;;23.10;1.00;;;;;;6215942;23;20031;-88
2023/07/03 10:21:16;;;;;;;12.07;4.78;;;24.00;1.00;;;;;;6218424;23;20025;-90
2023/07/03 10:24:07;;;;;;;13.80;4.70;;;24.40;1.00;;;;;;6175365;23;20025;-90
2023/07/03 10:26:58;;;;;;;11.05;4.95;;;23.70;1.00;;;;;;6216362;23;20118;-90
2023/07/03 10:29:53;;;;;;;12.15;4.93;;;22.80;1.00;;;;;;6217161;23;20028;-89
2023/07/03 10:32:43;;;;;;;12.43;5.20;;;22.30;1.00;;;;;;6194402;23;20100;-90
2023/07/03 10:35:34;;;;;;;10.00;3.90;;;22.40;1.00;;;;;;6217043;23;20316;-88
2023/07/03 10:38:25;;;;;;;10.38;3.80;;;22.90;1.00;;;;;;6194618;23;20024;-87
2023/07/03 10:41:18;;;;;;;7.80;3.35;;;23.90;1.00;;;;;;6218762;23;20020;-89
2023/07/03 10:44:11;;;;;;;6.75;3.13;;;25.00;1.00;;;;;;6216125;23;20029;-87
2023/07/03 10:47:29;;;;;;;7.20;3.17;;;25.20;1.00;;;;;;6194755;23;20029;-87
2023/07/03 10:50:17;;;;;;;7.72;3.13;;;24.10;1.00;;;;;;6194274;23;20056;-89
2023/07/03 10:53:22;;;;;;;7.03;3.45;;;23.30;1.00;;;;;;6223264;23;20052;-90
2023/07/03 10:56:18;;;;;;;7.20;3.45;;;22.90;1.00;;;;;;6203557;23;20032;-89
2023/07/03 10:59:26;;;;;;;6.13;3.15;;;22.80;1.00;;;;;;6218434;23;20025;-88
2023/07/03 11:02:30;;;;;;;11.23;3.60;;;22.80;1.00;;;;;;6216372;23;20721;-89
2023/07/03 11:05:28;;;;;;;6.57;3.25;;;22.60;1.00;;;;;;6215722;23;20025;-88
2023/07/03 11:08:29;;;;;;;6.75;3.38;;;23.20;1.00;;;;;;6196916;23;20163;-88
2023/07/03 11:11:46;;;;;;;6.38;3.30;;;23.00;1.00;;;;;;6215593;23;20078;-88
2023/07/03 11:14:40;;;;;;;9.45;3.20;;;22.70;1.00;;;;;;6215814;23;20025;-89
2023/07/03 11:17:36;;;;;;;12.48;3.53;;;22.60;1.00;;;;;;6195511;23;20021;-86
2023/07/03 11:20:44;;;;;;;9.48;3.22;;;22.60;1.00;;;;;;6217329;23;20036;-88
2023/07/03 11:23:50;;;;;;;7.07;3.15;;;24.00;1.00;;;;;;6223239;23;20024;-86
2023/07/03 11:26:37;;;;;;;7.28;3.03;;;25.10;1.00;;;;;;6214836;23;20020;-87
2023/07/03 11:29:28;;;;;;;4.20;3.00;;;24.30;1.00;;;;;;6215426;23;20291;-91
2023/07/03 11:32:18;;;;;;;10.02;4.03;;;23.90;1.00;;;;;;6216282;23;20423;-89
2023/07/03 11:35:08;;;;;;;7.28;3.40;;;23.70;1.00;;;;;;6196494;23;20024;-89
2023/07/03 11:38:06;;;;;;;9.70;3.35;;;23.20;1.00;;;;;;6195509;23;20323;-89
2023/07/03 11:40:59;;;;;;;10.15;4.30;;;23.20;1.00;;;;;;6216240;23;20103;-88
2023/07/03 11:43:50;;;;;;;8.25;3.38;;;24.40;1.00;;;;;;6218293;23;20029;-90
2023/07/03 11:46:38;;;;;;;9.90;3.58;;;25.40;1.00;;;;;;6218066;23;20099;-89
2023/07/03 11:49:30;;;;;;;9.05;3.90;;;25.00;1.00;;;;;;6192137;23;20032;-88
2023/07/03 11:52:34;;;;;;;8.48;3.50;;;24.60;1.00;;;;;;6215062;23;20035;-91
2023/07/03 11:55:37;;;;;;;8.55;4.00;;;26.00;1.00;;;;;;6215394;23;20344;-88
2023/07/03 11:58:28;;;;;;;10.02;3.65;;;27.10;1.00;;;;;;6195386;23;20060;-88
2023/07/03 12:01:30;;;;;;;5.95;3.05;;;28.00;1.00;;;;;;6175423;23;20106;-89
2023/07/03 12:04:36;;;;;;;;;;;28.10;1.00;;;;;;6219049;23;20025;-89
2023/07/03 12:07:28;;;;;;;7.90;3.70;;;27.00;1.00;;;;;;6236256;23;19916;-88
2023/07/03 12:10:21;;;;;;;7.30;3.50;;;26.90;1.00;;;;;;6229557;23;20029;-90
2023/07/03 12:13:35;;;;;;;6.68;2.95;;;27.50;1.00;;;;;;6228253;23;20028;-91
2023/07/03 12:16:28;;;;;;;9.38;3.35;;;27.40;1.00;;;;;;6229820;23;20416;-88
2023/07/03 12:19:16;;;;;;;8.35;3.20;;;26.20;1.00;;;;;;6219706;23;20047;-88
2023/07/03 12:22:04;;;;;;;9.60;3.70;;;25.40;1.00;;;;;;6196384;23;20020;-90
2023/07/03 12:25:07;;;;;;;8.85;3.67;;;25.00;1.00;;;;;;6221773;23;20024;-90
2023/07/03 12:28:09;;;;;;;11.40;4.28;;;26.20;1.00;;;;;;6197523;23;20044;-90
2023/07/03 12:31:15;;;;;;;10.35;3.17;;;28.00;1.00;;;;;;6219327;23;20040;-90
2023/07/03 12:34:03;;;;;;;8.25;3.30;;;29.80;1.00;;;;;;6218498;23;20024;-89
2023/07/03 12:36:51;;;;;;;7.65;3.45;;;30.50;1.00;;;;;;6216866;23;20029;-92
2023/07/03 12:39:49;;;;;;;7.45;3.35;;;29.90;1.00;;;;;;6222773;23;20016;-90
2023/07/03 12:42:39;;;;;;;9.07;2.90;;;28.70;1.00;;;;;;6228223;23;20075;-91
2023/07/03 12:45:28;;;;;;;9.82;3.30;;;27.80;1.00;;;;;;6226767;23;20020;-89
2023/07/03 12:48:20;;;;;;;8.13;3.60;;;28.20;1.00;;;;;;6250199;22;20047;-89
2023/07/03 12:51:08;;;;;;;7.78;3.20;;;28.00;1.00;;;;;;6251016;23;20028;-87
2023/07/03 12:53:55;;;;;;;8.90;3.42;;;28.70;1.00;;;;;;6226864;23;20028;-89
2023/07/03 12:56:44;;;;;;;8.43;3.60;;;29.30;1.00;;;;;;6248163;23;20024;-87
2023/07/03 12:59:32;;;;;;;8.43;3.40;;;29.40;1.00;;;;;;6229337;22;20019;-89
2023/07/03 13:02:25;;;;;;;7.65;3.42;;;29.80;1.00;;;;;;6250535;22;20024;-89
2023/07/03 13:05:17;;;;;;;7.93;3.00;;;29.70;1.00;;;;;;6249020;23;20024;-87
2023/07/03 13:08:14;;;;;;;6.22;2.95;;;29.80;1.00;;;;;;6250107;22;20020;-87
2023/07/03 13:11:03;;;;;;;6.22;3.38;;;30.20;1.00;;;;;;6225245;23;20028;-88
2023/07/03 13:14:12;;;;;;;6.85;3.05;;;30.80;1.00;;;;;;6250153;23;20032;-89
2023/07/03 13:17:03;;;;;;;5.63;2.97;;;30.10;1.00;;;;;;6249155;23;20062;-92
2023/07/03 13:19:51;;;;;;;8.88;3.20;;;28.70;1.00;;;;;;6248525;23;20024;-88
2023/07/03 13:22:51;;;;;;;5.30;3.15;;;27.50;1.00;;;;;;6249210;23;20024;-88
2023/07/03 13:25:54;;;;;;;10.77;2.92;;;26.20;1.00;;;;;;6248216;23;20051;-87
2023/07/03 13:28:51;;;;;;;;;;;27.10;1.00;;;;;;6226905;23;20106;-87
2023/07/03 13:31:39;;;;;;;6.05;2.90;;;27.80;1.00;;;;;;6245900;23;19915;-86
2023/07/03 13:34:51;;;;;;;6.70;2.00;;;27.70;1.00;;;;;;6249695;23;20122;-89
2023/07/03 13:37:39;;;;;;;6.65;2.33;;;27.40;1.00;;;;;;6247860;23;20066;-87
2023/07/03 13:40:27;;;;;;;4.15;2.17;;;26.90;1.00;;;;;;6243774;23;20021;-89
2023/07/03 13:43:21;;;;;;;5.13;2.17;;;26.50;1.00;;;;;;6220662;23;20043;-90
2023/07/03 13:46:14;;;;;;;6.25;1.90;;;26.00;1.00;;;;;;6222636;23;20031;-89
2023/07/03 13:49:12;;;;;;;4.57;1.90;;;26.80;1.00;;;;;;6221064;23;20131;-88
2023/07/03 13:52:04;;;;;;;5.70;2.05;;;28.60;1.00;;;;;;6217832;23;20038;-88
2023/07/03 13:54:52;;;;;;;6.50;2.13;;;27.90;1.00;;;;;;6219451;23;20122;-87
2023/07/03 13:57:42;;;;;;;4.38;1.77;;;26.30;1.00;;;;;;6217429;23;20057;-86
2023/07/03 14:00:29;;;;;;;5.25;1.85;;;25.30;1.00;;;;;;6216474;23;20028;-88
2023/07/03 14:03:19;;;;;;;4.15;1.65;;;24.70;1.00;;;;;;6217651;23;20028;-88
2023/07/03 14:06:10;;;;;;;6.10;2.20;;;24.40;1.00;;;;;;6216062;23;20107;-90
2023/07/03 14:08:57;;;;;;;3.55;1.70;;;24.20;1.00;;;;;;6217175;23;20327;-89
2023/07/03 14:11:45;;;;;;;3.33;1.60;;;24.10;1.00;;;;;;6220561;23;20024;-88
2023/07/03 14:14:34;;;;;;;4.13;1.77;;;23.90;1.00;;;;;;6218619;23;20039;-89
2023/07/03 14:17:23;;;;;;;3.53;1.42;;;23.70;1.00;;;;;;6198733;23;20084;-88
2023/07/03 14:20:11;;;;;;;3.63;1.88;;;24.20;1.00;;;;;;6197291;23;20025;-89
2023/07/03 14:23:02;;;;;;;5.45;2.03;;;24.80;1.00;;;;;;6216861;23;20035;-88
2023/07/03 14:25:53;;;;;;;5.28;1.98;;;25.00;1.00;;;;;;6216909;23;20176;-89
2023/07/03 14:28:45;;;;;;;4.28;1.38;;;24.90;1.00;;;;;;6198724;23;20025;-88
2023/07/03 14:31:33;;;;;;;3.78;1.73;;;24.50;1.00;;;;;;6216901;23;20025;-88
2023/07/03 14:34:21;;;;;;;3.88;1.55;;;24.90;1.00;;;;;;6199161;23;20080;-87
2023/07/03 14:37:08;;;;;;;3.40;1.35;;;25.30;1.00;;;;;;6224238;23;20032;-89
2023/07/03 14:39:59;;;;;;;4.30;1.13;;;25.70;1.00;;;;;;6220242;23;20029;-88
2023/07/03 14:42:50;;;;;;;2.97;1.38;;;25.70;1.00;;;;;;6223040;23;20024;-85
2023/07/03 14:45:39;;;;;;;3.00;1.30;;;26.70;1.00;;;;;;6222716;23;20040;-88